createdAt,value
2018-07-12T00:00:32.913Z,14.82
2018-07-12T00:01:32.863Z,14.94
2018-07-12T00:02:32.817Z,14.91
2018-07-12T00:03:32.769Z,14.97
2018-07-12T00:04:32.756Z,15.02
2018-07-12T00:05:32.703Z,15.06
2018-07-12T00:06:32.624Z,15.07
2018-07-12T00:07:32.578Z,15.03
2018-07-12T00:08:32.532Z,14.97
2018-07-12T00:09:32.483Z,14.99
2018-07-12T00:10:32.466Z,15.04
2018-07-12T00:11:32.422Z,14.96
2018-07-12T00:12:32.374Z,14.99
2018-07-12T00:13:32.302Z,15.09
2018-07-12T00:14:32.248Z,14.96
2018-07-12T00:15:32.200Z,15.02
2018-07-12T00:16:32.152Z,15.02
2018-07-12T00:17:32.139Z,14.99
2018-07-12T00:18:32.057Z,15.06
2018-07-12T00:19:32.011Z,14.99
2018-07-12T00:20:31.969Z,15.02
2018-07-12T00:21:31.917Z,15.00
2018-07-12T00:22:31.907Z,15.00
2018-07-12T00:23:31.823Z,15.03
2018-07-12T00:24:31.776Z,15.04
2018-07-12T00:25:31.731Z,14.88
2018-07-12T00:26:31.712Z,14.85
2018-07-12T00:27:31.638Z,14.88
2018-07-12T00:28:31.634Z,14.86
2018-07-12T00:29:31.541Z,14.88
2018-07-12T00:30:31.490Z,14.84
2018-07-12T00:31:31.446Z,14.86
2018-07-12T00:32:31.395Z,14.86
2018-07-12T00:33:31.391Z,14.88
2018-07-12T00:34:31.307Z,14.81
2018-07-12T00:35:31.254Z,14.81
2018-07-12T00:36:31.211Z,14.84
2018-07-12T00:37:31.160Z,14.86
2018-07-12T00:38:31.151Z,14.88
2018-07-12T00:39:31.066Z,14.82
2018-07-12T00:40:31.020Z,14.88
2018-07-12T00:41:30.975Z,14.89
2018-07-12T00:42:30.924Z,14.86
2018-07-12T00:43:30.910Z,14.89
2018-07-12T00:44:30.866Z,14.89
2018-07-12T00:45:30.786Z,14.94
2018-07-12T00:46:30.738Z,14.96
2018-07-12T00:47:30.687Z,14.97
2018-07-12T00:48:30.643Z,15.02
2018-07-12T00:49:30.625Z,15.03
2018-07-12T00:50:30.549Z,15.03
2018-07-12T00:51:30.500Z,15.03
2018-07-12T00:52:30.461Z,15.00
2018-07-12T00:53:30.438Z,15.03
2018-07-12T00:54:30.359Z,14.92
2018-07-12T00:55:30.313Z,15.09
2018-07-12T00:56:30.297Z,15.03
2018-07-12T00:57:30.219Z,15.00
2018-07-12T00:58:30.201Z,15.04
2018-07-12T00:59:30.125Z,15.06
2018-07-12T01:00:30.075Z,15.04
2018-07-12T01:01:30.028Z,15.09
2018-07-12T01:02:30.011Z,15.04
2018-07-12T01:03:29.933Z,15.09
2018-07-12T01:04:29.887Z,15.09
2018-07-12T01:05:29.840Z,15.11
2018-07-12T01:06:29.792Z,15.14
2018-07-12T01:07:29.779Z,15.04
2018-07-12T01:08:29.728Z,15.10
2018-07-12T01:09:29.649Z,15.09
2018-07-12T01:10:29.604Z,15.03
2018-07-12T01:11:29.552Z,15.11
2018-07-12T01:12:29.506Z,15.17
2018-07-12T01:13:29.493Z,15.15
2018-07-12T01:14:29.444Z,15.18
2018-07-12T01:15:29.368Z,15.11
2018-07-12T01:16:29.318Z,15.14
2018-07-12T01:17:29.271Z,15.18
2018-07-12T01:18:29.259Z,15.17
2018-07-12T01:19:29.184Z,15.10
2018-07-12T01:20:29.128Z,15.17
2018-07-12T01:21:29.081Z,15.15
2018-07-12T01:22:29.034Z,15.17
2018-07-12T01:23:29.020Z,15.10
2018-07-12T01:24:28.944Z,15.10
2018-07-12T01:25:28.895Z,15.15
2018-07-12T01:26:28.895Z,15.11
2018-07-12T01:27:28.800Z,15.11
2018-07-12T01:28:28.753Z,15.21
2018-07-12T01:29:28.706Z,15.21
2018-07-12T01:30:28.657Z,15.19
2018-07-12T01:31:28.644Z,15.18
2018-07-12T01:32:28.566Z,15.17
2018-07-12T01:33:28.518Z,15.25
2018-07-12T01:34:28.470Z,15.15
2018-07-12T01:35:28.449Z,15.10
2018-07-12T01:36:28.407Z,15.14
2018-07-12T01:37:28.357Z,15.11
2018-07-12T01:38:28.282Z,15.15
2018-07-12T01:39:28.267Z,15.17
2018-07-12T01:40:28.189Z,15.18
2018-07-12T01:41:28.139Z,15.17
2018-07-12T01:42:28.125Z,15.10
2018-07-12T01:43:28.078Z,15.02
2018-07-12T01:44:28.004Z,15.15
2018-07-12T01:45:27.954Z,15.15
2018-07-12T01:46:27.904Z,15.09
2018-07-12T01:47:27.862Z,15.09
2018-07-12T01:48:27.845Z,15.17
2018-07-12T01:49:27.761Z,15.17
2018-07-12T01:50:27.713Z,15.18
2018-07-12T01:51:27.709Z,15.14
2018-07-12T01:52:27.621Z,15.10
2018-07-12T01:53:27.575Z,15.11
2018-07-12T01:54:27.527Z,15.17
2018-07-12T01:55:27.478Z,15.14
2018-07-12T01:56:27.468Z,15.17
2018-07-12T01:57:27.418Z,15.04
2018-07-12T01:58:27.336Z,15.10
2018-07-12T01:59:27.296Z,15.04
2018-07-12T02:00:27.284Z,15.04
2018-07-12T02:01:27.198Z,15.00
2018-07-12T02:02:27.188Z,15.03
2018-07-12T02:03:27.105Z,15.04
2018-07-12T02:04:27.060Z,15.04
2018-07-12T02:05:27.007Z,15.07
2018-07-12T02:06:26.962Z,15.06
2018-07-12T02:07:26.948Z,15.09
2018-07-12T02:08:26.866Z,15.03
2018-07-12T02:09:26.818Z,15.07
2018-07-12T02:10:26.770Z,15.03
2018-07-12T02:11:26.724Z,15.10
2018-07-12T02:12:26.712Z,15.09
2018-07-12T02:13:26.633Z,15.07
2018-07-12T02:14:26.581Z,15.07
2018-07-12T02:15:26.570Z,15.07
2018-07-12T02:16:26.488Z,15.07
2018-07-12T02:17:26.444Z,15.03
2018-07-12T02:18:26.396Z,15.04
2018-07-12T02:19:26.381Z,15.07
2018-07-12T02:20:26.300Z,15.06
2018-07-12T02:21:26.256Z,15.03
2018-07-12T02:22:26.245Z,15.11
2018-07-12T02:23:26.159Z,15.07
2018-07-12T02:24:26.110Z,15.02
2018-07-12T02:25:26.067Z,15.09
2018-07-12T02:26:26.016Z,15.07
2018-07-12T02:27:26.002Z,15.06
2018-07-12T02:28:25.922Z,15.11
2018-07-12T02:29:25.878Z,15.02
2018-07-12T02:30:25.831Z,15.09
2018-07-12T02:31:25.781Z,15.06
2018-07-12T02:32:25.773Z,15.04
2018-07-12T02:33:25.691Z,15.09
2018-07-12T02:34:25.642Z,15.07
2018-07-12T02:35:25.593Z,15.02
2018-07-12T02:36:25.542Z,15.02
2018-07-12T02:37:25.537Z,15.07
2018-07-12T02:38:25.452Z,15.04
2018-07-12T02:39:25.405Z,15.06
2018-07-12T02:40:25.364Z,15.04
2018-07-12T02:41:25.308Z,15.03
2018-07-12T02:42:25.301Z,15.03
2018-07-12T02:43:25.960Z,15.00
2018-07-12T02:44:25.169Z,15.04
2018-07-12T02:45:25.122Z,15.07
2018-07-12T02:46:25.077Z,15.06
2018-07-12T02:47:25.060Z,15.06
2018-07-12T02:48:24.981Z,14.99
2018-07-12T02:49:24.965Z,15.04
2018-07-12T02:50:24.888Z,15.02
2018-07-12T02:51:24.838Z,14.96
2018-07-12T02:52:24.791Z,15.00
2018-07-12T02:53:24.775Z,14.99
2018-07-12T02:54:24.698Z,15.00
2018-07-12T02:55:24.681Z,14.99
2018-07-12T02:56:24.604Z,15.02
2018-07-12T02:57:24.556Z,15.06
2018-07-12T02:58:24.508Z,15.02
2018-07-12T02:59:24.461Z,14.94
2018-07-12T03:00:24.456Z,15.00
2018-07-12T03:01:24.369Z,15.03
2018-07-12T03:02:24.321Z,15.02
2018-07-12T03:03:24.273Z,14.99
2018-07-12T03:04:24.224Z,14.96
2018-07-12T03:05:24.218Z,15.00
2018-07-12T03:06:24.131Z,15.02
2018-07-12T03:07:24.085Z,15.07
2018-07-12T03:08:24.038Z,14.97
2018-07-12T03:09:23.988Z,15.00
2018-07-12T03:10:23.973Z,15.02
2018-07-12T03:11:23.897Z,15.04
2018-07-12T03:12:23.849Z,14.94
2018-07-12T03:13:23.806Z,15.02
2018-07-12T03:14:23.752Z,14.92
2018-07-12T03:15:23.736Z,15.00
2018-07-12T03:16:23.659Z,14.92
2018-07-12T03:17:23.612Z,15.02
2018-07-12T03:18:23.566Z,14.99
2018-07-12T03:19:23.518Z,14.92
2018-07-12T03:20:23.505Z,14.94
2018-07-12T03:21:23.428Z,14.94
2018-07-12T03:22:23.375Z,15.04
2018-07-12T03:23:23.327Z,14.94
2018-07-12T03:24:23.281Z,14.92
2018-07-12T03:25:23.268Z,14.96
2018-07-12T03:26:23.188Z,15.03
2018-07-12T03:27:23.161Z,15.02
2018-07-12T03:28:23.093Z,14.94
2018-07-12T03:29:23.082Z,14.99
2018-07-12T03:30:22.996Z,14.94
2018-07-12T03:31:22.952Z,14.94
2018-07-12T03:32:22.902Z,15.02
2018-07-12T03:33:22.860Z,14.96
2018-07-12T03:34:22.849Z,15.03
2018-07-12T03:35:22.762Z,15.02
2018-07-12T03:36:22.714Z,14.94
2018-07-12T03:37:22.669Z,15.06
2018-07-12T03:38:22.623Z,14.97
2018-07-12T03:39:22.606Z,14.92
2018-07-12T03:40:22.562Z,14.97
2018-07-12T03:41:22.480Z,15.03
2018-07-12T03:42:22.432Z,15.02
2018-07-12T03:43:22.433Z,15.02
2018-07-12T03:44:22.337Z,14.96
2018-07-12T03:45:22.291Z,15.07
2018-07-12T03:46:22.240Z,15.06
2018-07-12T03:47:22.198Z,15.03
2018-07-12T03:48:22.188Z,14.97
2018-07-12T03:49:22.101Z,15.06
2018-07-12T03:50:22.055Z,14.92
2018-07-12T03:51:22.006Z,15.00
2018-07-12T03:52:21.956Z,15.02
2018-07-12T03:53:21.950Z,15.00
2018-07-12T03:54:21.863Z,15.02
2018-07-12T03:55:21.815Z,14.94
2018-07-12T03:56:21.769Z,14.96
2018-07-12T03:57:21.722Z,14.99
2018-07-12T03:58:21.713Z,14.97
2018-07-12T03:59:21.657Z,14.97
2018-07-12T04:00:21.580Z,14.97
2018-07-12T04:01:21.565Z,14.91
2018-07-12T04:02:21.486Z,14.84
2018-07-12T04:03:21.439Z,14.88
2018-07-12T04:04:21.390Z,15.00
2018-07-12T04:05:21.376Z,14.94
2018-07-12T04:06:21.330Z,14.92
2018-07-12T04:07:21.249Z,14.85
2018-07-12T04:08:21.203Z,14.96
2018-07-12T04:09:21.158Z,14.96
2018-07-12T04:10:21.115Z,14.94
2018-07-12T04:11:21.094Z,14.94
2018-07-12T04:12:21.076Z,14.91
2018-07-12T04:13:20.965Z,15.04
2018-07-12T04:14:20.920Z,14.97
2018-07-12T04:15:20.870Z,15.00
2018-07-12T04:16:20.824Z,14.96
2018-07-12T04:17:20.807Z,14.99
2018-07-12T04:18:20.729Z,14.97
2018-07-12T04:19:20.691Z,14.99
2018-07-12T04:20:20.634Z,14.96
2018-07-12T04:21:20.588Z,14.99
2018-07-12T04:22:20.581Z,14.99
2018-07-12T04:23:20.492Z,14.96
2018-07-12T04:24:20.445Z,14.96
2018-07-12T04:25:20.396Z,14.92
2018-07-12T04:26:20.350Z,14.99
2018-07-12T04:27:20.343Z,14.94
2018-07-12T04:28:20.255Z,14.96
2018-07-12T04:29:20.212Z,14.92
2018-07-12T04:30:20.158Z,15.02
2018-07-12T04:31:20.114Z,15.07
2018-07-12T04:32:20.098Z,15.00
2018-07-12T04:33:20.019Z,15.00
2018-07-12T04:34:20.005Z,15.00
2018-07-12T04:35:19.927Z,15.06
2018-07-12T04:36:19.880Z,15.04
2018-07-12T04:37:19.832Z,15.00
2018-07-12T04:38:19.816Z,15.00
2018-07-12T04:39:19.739Z,15.04
2018-07-12T04:40:19.687Z,15.02
2018-07-12T04:41:19.644Z,14.99
2018-07-12T04:42:19.633Z,14.99
2018-07-12T04:43:19.544Z,15.07
2018-07-12T04:44:19.499Z,15.09
2018-07-12T04:45:19.454Z,15.04
2018-07-12T04:46:19.408Z,15.09
2018-07-12T04:47:19.396Z,15.09
2018-07-12T04:48:19.313Z,15.02
2018-07-12T04:49:19.262Z,15.06
2018-07-12T04:50:19.217Z,15.04
2018-07-12T04:51:19.281Z,15.07
2018-07-12T04:52:19.162Z,15.09
2018-07-12T04:53:19.072Z,15.11
2018-07-12T04:54:19.026Z,15.10
2018-07-12T04:55:19.489Z,15.19
2018-07-12T04:56:18.932Z,15.03
2018-07-12T04:57:18.917Z,15.14
2018-07-12T04:58:18.925Z,15.07
2018-07-12T04:59:18.792Z,15.10
2018-07-12T05:00:18.742Z,15.14
2018-07-12T05:01:18.695Z,15.14
2018-07-12T05:02:18.650Z,15.14
2018-07-12T05:03:18.633Z,15.27
2018-07-12T05:04:18.554Z,15.14
2018-07-12T05:05:18.507Z,15.18
2018-07-12T05:06:18.460Z,15.21
2018-07-12T05:07:18.414Z,15.15
2018-07-12T05:08:18.406Z,15.19
2018-07-12T05:09:18.318Z,15.19
2018-07-12T05:10:18.273Z,15.24
2018-07-12T05:11:18.224Z,15.25
2018-07-12T05:12:18.180Z,15.14
2018-07-12T05:13:18.172Z,15.28
2018-07-12T05:14:18.081Z,15.22
2018-07-12T05:15:18.035Z,15.24
2018-07-12T05:16:18.030Z,15.22
2018-07-12T05:17:17.941Z,15.24
2018-07-12T05:18:17.927Z,15.28
2018-07-12T05:19:17.851Z,15.33
2018-07-12T05:20:17.834Z,15.29
2018-07-12T05:21:17.753Z,15.33
2018-07-12T05:22:17.711Z,15.35
2018-07-12T05:23:17.687Z,15.39
2018-07-12T05:24:17.612Z,15.36
2018-07-12T05:25:17.594Z,15.37
2018-07-12T05:26:17.517Z,15.31
2018-07-12T05:27:17.472Z,15.39
2018-07-12T05:28:17.422Z,15.40
2018-07-12T05:29:17.381Z,15.42
2018-07-12T05:30:17.364Z,15.43
2018-07-12T05:31:17.283Z,15.49
2018-07-12T05:32:17.236Z,15.51
2018-07-12T05:33:17.188Z,15.52
2018-07-12T05:34:17.141Z,15.67
2018-07-12T05:35:17.127Z,15.57
2018-07-12T05:36:17.078Z,15.68
2018-07-12T05:37:17.006Z,15.79
2018-07-12T05:38:16.953Z,15.80
2018-07-12T05:39:17.002Z,15.94
2018-07-12T05:40:16.859Z,16.00
2018-07-12T05:41:16.856Z,16.09
2018-07-12T05:42:16.768Z,16.12
2018-07-12T05:43:16.718Z,16.12
2018-07-12T05:44:16.672Z,16.16
2018-07-12T05:45:16.623Z,16.15
2018-07-12T05:46:16.619Z,16.16
2018-07-12T05:47:16.535Z,16.10
2018-07-12T05:48:16.485Z,15.95
2018-07-12T05:49:16.439Z,15.94
2018-07-12T05:50:16.394Z,15.91
2018-07-12T05:51:16.374Z,15.90
2018-07-12T05:52:16.302Z,15.83
2018-07-12T05:53:16.299Z,15.79
2018-07-12T05:54:16.206Z,15.70
2018-07-12T05:55:16.160Z,15.77
2018-07-12T05:56:16.111Z,15.77
2018-07-12T05:57:16.067Z,15.72
2018-07-12T05:58:16.054Z,15.70
2018-07-12T05:59:15.974Z,15.62
2018-07-12T06:00:15.959Z,15.68
2018-07-12T06:01:15.878Z,15.62
2018-07-12T06:02:15.831Z,15.62
2018-07-12T06:03:15.786Z,15.57
2018-07-12T06:04:15.744Z,15.67
2018-07-12T06:05:15.726Z,15.57
2018-07-12T06:06:15.646Z,15.57
2018-07-12T06:07:15.643Z,15.52
2018-07-12T06:08:15.553Z,15.51
2018-07-12T06:09:15.506Z,15.55
2018-07-12T06:10:15.460Z,15.57
2018-07-12T06:11:15.415Z,15.52
2018-07-12T06:12:15.401Z,15.57
2018-07-12T06:13:15.371Z,15.59
2018-07-12T06:14:15.272Z,15.55
2018-07-12T06:15:15.227Z,15.62
2018-07-12T06:16:15.178Z,15.58
2018-07-12T06:17:15.175Z,15.55
2018-07-12T06:18:15.083Z,15.59
2018-07-12T06:19:15.036Z,15.58
2018-07-12T06:20:14.992Z,15.67
2018-07-12T06:21:14.943Z,15.58
2018-07-12T06:22:14.932Z,15.59
2018-07-12T06:23:14.851Z,15.54
2018-07-12T06:24:14.824Z,15.59
2018-07-12T06:25:14.757Z,15.70
2018-07-12T06:26:14.710Z,15.68
2018-07-12T06:27:14.711Z,15.83
2018-07-12T06:28:14.616Z,15.75
2018-07-12T06:29:14.572Z,15.76
2018-07-12T06:30:14.524Z,15.82
2018-07-12T06:31:14.476Z,15.90
2018-07-12T06:32:14.470Z,15.97
2018-07-12T06:33:14.384Z,16.09
2018-07-12T06:34:14.345Z,16.17
2018-07-12T06:35:14.292Z,16.21
2018-07-12T06:36:14.245Z,16.20
2018-07-12T06:37:14.277Z,16.31
2018-07-12T06:38:14.150Z,16.41
2018-07-12T06:39:14.103Z,16.39
2018-07-12T06:40:14.063Z,16.58
2018-07-12T06:41:14.010Z,16.64
2018-07-12T06:42:13.997Z,16.64
2018-07-12T06:43:13.917Z,16.66
2018-07-12T06:44:13.878Z,16.72
2018-07-12T06:45:13.827Z,16.81
2018-07-12T06:46:13.779Z,16.79
2018-07-12T06:47:13.767Z,16.91
2018-07-12T06:48:13.688Z,16.86
2018-07-12T06:49:13.683Z,16.99
2018-07-12T06:50:13.594Z,16.94
2018-07-12T06:51:13.550Z,16.94
2018-07-12T06:52:13.510Z,16.99
2018-07-12T06:53:13.458Z,17.16
2018-07-12T06:54:13.444Z,17.16
2018-07-12T06:55:13.364Z,17.16
2018-07-12T06:56:13.353Z,17.22
2018-07-12T06:57:13.275Z,17.14
2018-07-12T06:58:13.256Z,17.26
2018-07-12T06:59:13.181Z,17.29
2018-07-12T07:00:13.135Z,17.30
2018-07-12T07:01:13.095Z,17.29
2018-07-12T07:02:13.079Z,17.26
2018-07-12T07:03:12.999Z,17.31
2018-07-12T07:04:12.954Z,17.30
2018-07-12T07:05:12.909Z,17.39
2018-07-12T07:06:12.869Z,17.41
2018-07-12T07:07:12.868Z,17.48
2018-07-12T07:08:13.529Z,17.48
2018-07-12T07:09:12.727Z,17.60
2018-07-12T07:10:12.681Z,17.63
2018-07-12T07:11:12.643Z,17.65
2018-07-12T07:12:12.643Z,17.65
2018-07-12T07:13:12.547Z,17.67
2018-07-12T07:14:12.499Z,17.68
2018-07-12T07:15:12.456Z,17.74
2018-07-12T07:16:12.407Z,17.80
2018-07-12T07:17:12.397Z,17.79
2018-07-12T07:18:12.364Z,17.87
2018-07-12T07:19:12.274Z,17.90
2018-07-12T07:20:12.286Z,17.94
2018-07-12T07:21:12.186Z,17.94
2018-07-12T07:22:12.139Z,17.95
2018-07-12T07:23:12.133Z,18.04
2018-07-12T07:24:12.050Z,18.03
2018-07-12T07:25:12.007Z,18.04
2018-07-12T07:26:11.976Z,18.13
2018-07-12T07:27:11.918Z,18.18
2018-07-12T07:28:11.901Z,18.23
2018-07-12T07:29:11.828Z,18.35
2018-07-12T07:30:11.780Z,18.26
2018-07-12T07:31:11.735Z,18.29
2018-07-12T07:32:11.692Z,18.29
2018-07-12T07:33:11.708Z,18.31
2018-07-12T07:34:11.600Z,18.26
2018-07-12T07:35:11.554Z,18.25
2018-07-12T07:36:11.549Z,18.18
2018-07-12T07:37:11.500Z,18.11
2018-07-12T07:38:11.424Z,18.10
2018-07-12T07:39:11.409Z,18.05
2018-07-12T07:40:11.334Z,18.08
2018-07-12T07:41:11.289Z,18.11
2018-07-12T07:42:11.280Z,18.04
2018-07-12T07:43:11.349Z,17.95
2018-07-12T07:44:11.158Z,18.01
2018-07-12T07:45:11.145Z,18.01
2018-07-12T07:46:11.070Z,18.01
2018-07-12T07:47:11.024Z,18.13
2018-07-12T07:48:11.010Z,18.05
2018-07-12T07:49:10.968Z,18.08
2018-07-12T07:50:10.886Z,18.08
2018-07-12T07:51:10.842Z,18.10
2018-07-12T07:52:10.839Z,18.07
2018-07-12T07:53:10.754Z,17.98
2018-07-12T07:54:10.708Z,18.01
2018-07-12T07:55:10.662Z,18.05
2018-07-12T07:56:10.623Z,18.03
2018-07-12T07:57:10.668Z,18.11
2018-07-12T07:58:10.531Z,18.11
2018-07-12T07:59:10.518Z,18.18
2018-07-12T08:00:10.444Z,18.19
2018-07-12T08:01:10.439Z,18.29
2018-07-12T08:02:10.354Z,18.38
2018-07-12T08:03:10.308Z,18.44
2018-07-12T08:04:10.270Z,18.49
2018-07-12T08:05:10.221Z,18.60
2018-07-12T08:06:10.203Z,18.71
2018-07-12T08:07:10.126Z,18.74
2018-07-12T08:08:10.123Z,18.71
2018-07-12T08:09:10.041Z,18.73
2018-07-12T08:10:09.994Z,18.70
2018-07-12T08:11:09.952Z,18.65
2018-07-12T08:12:09.907Z,18.75
2018-07-12T08:13:09.893Z,18.81
2018-07-12T08:14:09.820Z,18.78
2018-07-12T08:15:09.773Z,18.88
2018-07-12T08:16:09.769Z,18.93
2018-07-12T08:17:09.686Z,18.84
2018-07-12T08:18:09.670Z,18.86
2018-07-12T08:19:09.603Z,18.86
2018-07-12T08:20:09.584Z,18.88
2018-07-12T08:21:09.514Z,18.95
2018-07-12T08:22:09.492Z,18.92
2018-07-12T08:23:09.457Z,18.89
2018-07-12T08:24:09.377Z,18.96
2018-07-12T08:25:09.333Z,19.09
2018-07-12T08:26:09.289Z,19.22
2018-07-12T08:27:09.246Z,19.30
2018-07-12T08:28:09.226Z,19.26
2018-07-12T08:29:09.160Z,19.29
2018-07-12T08:30:09.111Z,19.26
2018-07-12T08:31:09.079Z,19.29
2018-07-12T08:32:09.027Z,19.40
2018-07-12T08:33:09.013Z,19.58
2018-07-12T08:34:08.968Z,19.77
2018-07-12T08:35:08.903Z,19.69
2018-07-12T08:36:08.853Z,19.73
2018-07-12T08:37:08.809Z,19.74
2018-07-12T08:38:08.762Z,19.76
2018-07-12T08:39:08.751Z,19.85
2018-07-12T08:40:08.676Z,19.89
2018-07-12T08:41:08.633Z,20.02
2018-07-12T08:42:08.622Z,20.00
2018-07-12T08:43:08.545Z,20.07
2018-07-12T08:44:08.504Z,20.11
2018-07-12T08:45:08.461Z,20.11
2018-07-12T08:46:08.452Z,20.06
2018-07-12T08:47:08.413Z,20.00
2018-07-12T08:48:08.334Z,20.02
2018-07-12T08:49:08.285Z,20.31
2018-07-12T08:50:08.242Z,20.47
2018-07-12T08:51:08.232Z,20.69
2018-07-12T08:52:08.159Z,20.99
2018-07-12T08:53:08.171Z,20.99
2018-07-12T08:54:08.103Z,20.97
2018-07-12T08:55:08.031Z,21.02
2018-07-12T08:56:07.984Z,21.18
2018-07-12T08:57:07.943Z,21.22
2018-07-12T08:58:07.900Z,21.22
2018-07-12T08:59:07.890Z,21.27
2018-07-12T09:00:07.814Z,21.25
2018-07-12T09:01:07.776Z,21.18
2018-07-12T09:02:07.730Z,21.20
2018-07-12T09:03:07.777Z,21.03
2018-07-12T09:04:07.675Z,21.07
2018-07-12T09:05:07.602Z,21.24
2018-07-12T09:06:07.559Z,21.20
2018-07-12T09:07:07.516Z,21.24
2018-07-12T09:08:07.484Z,21.22
2018-07-12T09:09:07.472Z,21.25
2018-07-12T09:10:07.392Z,21.40
2018-07-12T09:11:07.350Z,21.36
2018-07-12T09:12:07.305Z,21.32
2018-07-12T09:13:07.263Z,21.51
2018-07-12T09:14:07.257Z,21.54
2018-07-12T09:15:07.177Z,21.69
2018-07-12T09:16:07.167Z,21.85
2018-07-12T09:17:07.093Z,21.79
2018-07-12T09:18:07.094Z,21.72
2018-07-12T09:19:07.015Z,21.64
2018-07-12T09:20:06.968Z,21.64
2018-07-12T09:21:06.968Z,21.58
2018-07-12T09:22:06.885Z,21.52
2018-07-12T09:23:06.843Z,21.39
2018-07-12T09:24:06.842Z,21.45
2018-07-12T09:25:06.760Z,21.40
2018-07-12T09:26:06.725Z,21.37
2018-07-12T09:27:06.673Z,21.50
2018-07-12T09:28:06.634Z,21.76
2018-07-12T09:29:06.634Z,22.14
2018-07-12T09:30:06.549Z,22.44
2018-07-12T09:31:06.507Z,22.81
2018-07-12T09:32:06.465Z,22.91
2018-07-12T09:33:06.464Z,22.70
2018-07-12T09:34:06.383Z,22.75
2018-07-12T09:35:06.344Z,22.76
2018-07-12T09:36:06.300Z,22.65
2018-07-12T09:37:06.312Z,22.59
2018-07-12T09:38:06.246Z,22.53
2018-07-12T09:39:06.174Z,22.44
2018-07-12T09:40:06.136Z,22.22
2018-07-12T09:41:06.130Z,22.26
2018-07-12T09:42:06.050Z,22.13
2018-07-12T09:43:06.051Z,22.04
2018-07-12T09:44:05.968Z,21.99
2018-07-12T09:45:05.928Z,21.95
2018-07-12T09:46:05.885Z,21.95
2018-07-12T09:47:05.852Z,21.91
2018-07-12T09:48:05.837Z,21.83
2018-07-12T09:49:05.817Z,21.89
2018-07-12T09:50:05.724Z,21.89
2018-07-12T09:51:05.679Z,22.13
2018-07-12T09:52:05.644Z,22.38
2018-07-12T09:53:05.629Z,22.55
2018-07-12T09:54:05.555Z,22.53
2018-07-12T09:55:05.513Z,22.62
2018-07-12T09:56:05.580Z,22.59
2018-07-12T09:57:05.431Z,22.53
2018-07-12T09:58:05.392Z,22.59
2018-07-12T09:59:05.347Z,22.69
2018-07-12T10:00:05.313Z,22.70
2018-07-12T10:01:05.303Z,22.68
2018-07-12T10:02:05.223Z,22.66
2018-07-12T10:03:05.187Z,22.85
2018-07-12T10:04:05.142Z,23.20
2018-07-12T10:05:05.105Z,23.47
2018-07-12T10:06:05.101Z,23.73
2018-07-12T10:07:05.021Z,24.10
2018-07-12T10:08:04.977Z,24.20
2018-07-12T10:09:04.941Z,24.30
2018-07-12T10:10:04.900Z,24.51
2018-07-12T10:11:04.889Z,24.55
2018-07-12T10:12:04.816Z,24.69
2018-07-12T10:13:04.775Z,24.86
2018-07-12T10:14:04.771Z,24.98
2018-07-12T10:15:04.697Z,24.93
2018-07-12T10:16:04.653Z,25.13
2018-07-12T10:17:04.614Z,25.25
2018-07-12T10:18:04.573Z,25.43
2018-07-12T10:19:04.571Z,25.44
2018-07-12T10:20:04.494Z,25.55
2018-07-12T10:21:04.453Z,25.72
2018-07-12T10:22:04.414Z,25.90
2018-07-12T10:23:04.374Z,26.06
2018-07-12T10:24:04.367Z,26.09
2018-07-12T10:25:04.295Z,25.93
2018-07-12T10:26:04.255Z,25.88
2018-07-12T10:27:04.217Z,25.62
2018-07-12T10:28:04.179Z,25.60
2018-07-12T10:29:04.189Z,25.59
2018-07-12T10:30:04.109Z,25.51
2018-07-12T10:31:04.059Z,25.47
2018-07-12T10:32:04.019Z,25.48
2018-07-12T10:33:03.981Z,25.41
2018-07-12T10:34:03.971Z,25.43
2018-07-12T10:35:03.902Z,25.31
2018-07-12T10:36:03.870Z,25.14
2018-07-12T10:37:03.823Z,25.07
2018-07-12T10:38:03.785Z,24.88
2018-07-12T10:39:03.777Z,24.69
2018-07-12T10:40:03.704Z,24.47
2018-07-12T10:41:03.669Z,24.35
2018-07-12T10:42:03.626Z,24.03
2018-07-12T10:43:03.636Z,24.01
2018-07-12T10:44:03.547Z,23.87
2018-07-12T10:45:03.508Z,23.81
2018-07-12T10:46:03.468Z,23.61
2018-07-12T10:47:03.429Z,23.51
2018-07-12T10:48:03.435Z,23.48
2018-07-12T10:49:03.348Z,23.31
2018-07-12T10:50:03.311Z,23.18
2018-07-12T10:51:03.269Z,23.08
2018-07-12T10:52:03.227Z,23.13
2018-07-12T10:53:03.220Z,23.13
2018-07-12T10:54:03.149Z,23.20
2018-07-12T10:55:03.109Z,23.21
2018-07-12T10:56:03.102Z,23.23
2018-07-12T10:57:03.030Z,23.40
2018-07-12T10:58:02.988Z,23.37
2018-07-12T10:59:03.013Z,23.36
2018-07-12T11:00:02.945Z,23.37
2018-07-12T11:01:02.875Z,23.74
2018-07-12T11:02:02.831Z,23.95
2018-07-12T11:03:02.831Z,24.03
2018-07-12T11:04:02.750Z,24.10
2018-07-12T11:05:02.715Z,24.30
2018-07-12T11:06:02.675Z,24.70
2018-07-12T11:07:02.631Z,24.99
2018-07-12T11:08:02.626Z,24.96
2018-07-12T11:09:02.588Z,24.93
2018-07-12T11:10:02.556Z,24.70
2018-07-12T11:11:02.472Z,24.51
2018-07-12T11:12:02.433Z,24.38
2018-07-12T11:13:02.393Z,24.66
2018-07-12T11:14:02.356Z,24.58
2018-07-12T11:15:02.351Z,24.50
2018-07-12T11:16:02.272Z,24.43
2018-07-12T11:17:02.234Z,24.35
2018-07-12T11:18:02.227Z,24.50
2018-07-12T11:19:02.156Z,24.39
2018-07-12T11:20:02.116Z,24.35
2018-07-12T11:21:02.108Z,24.30
2018-07-12T11:22:02.037Z,24.21
2018-07-12T11:23:01.996Z,24.23
2018-07-12T11:24:01.957Z,24.33
2018-07-12T11:25:01.918Z,24.36
2018-07-12T11:26:01.920Z,24.28
2018-07-12T11:27:01.837Z,24.29
2018-07-12T11:28:01.803Z,24.30
2018-07-12T11:29:01.760Z,24.39
2018-07-12T11:30:01.719Z,24.66
2018-07-12T11:31:01.718Z,24.74
2018-07-12T11:32:01.644Z,25.13
2018-07-12T11:33:01.636Z,25.14
2018-07-12T11:34:01.561Z,25.33
2018-07-12T11:35:01.524Z,25.62
2018-07-12T11:36:01.483Z,25.85
2018-07-12T11:37:01.502Z,25.93
2018-07-12T11:38:01.404Z,26.22
2018-07-12T11:39:01.401Z,26.22
2018-07-12T11:40:01.328Z,26.55
2018-07-12T11:41:01.287Z,26.78
2018-07-12T11:42:01.246Z,27.00
2018-07-12T11:43:01.207Z,27.00
2018-07-12T11:44:01.200Z,26.96
2018-07-12T11:45:01.130Z,26.75
2018-07-12T11:46:01.090Z,26.74
2018-07-12T11:47:01.083Z,26.83
2018-07-12T11:48:01.016Z,27.00
2018-07-12T11:49:00.976Z,26.84
2018-07-12T11:50:00.936Z,26.83
2018-07-12T11:51:00.943Z,26.73
2018-07-12T11:52:00.864Z,26.90
2018-07-12T11:53:00.892Z,27.03
2018-07-12T11:54:00.781Z,27.25
2018-07-12T11:55:00.743Z,27.10
2018-07-12T11:56:00.745Z,26.88
2018-07-12T11:57:00.665Z,26.85
2018-07-12T11:58:00.633Z,26.90
2018-07-12T11:59:00.590Z,26.92
2018-07-12T12:00:00.551Z,26.84
2018-07-12T12:01:00.544Z,26.75
2018-07-12T12:02:00.573Z,26.73
2018-07-12T12:03:00.435Z,26.58
2018-07-12T12:04:00.399Z,26.47
2018-07-12T12:05:00.359Z,26.38
2018-07-12T12:06:00.322Z,26.28
2018-07-12T12:07:00.366Z,26.18
2018-07-12T12:08:00.276Z,25.96
2018-07-12T12:09:00.206Z,25.72
2018-07-12T12:10:00.166Z,25.51
2018-07-12T12:11:00.128Z,25.44
2018-07-12T12:12:00.092Z,25.35
2018-07-12T12:13:00.136Z,25.31
2018-07-12T12:14:00.018Z,25.41
2018-07-12T12:14:59.974Z,25.28
2018-07-12T12:15:59.936Z,25.16
2018-07-12T12:16:59.899Z,25.08
2018-07-12T12:17:59.909Z,25.11
2018-07-12T12:18:59.828Z,25.23
2018-07-12T12:19:59.780Z,25.32
2018-07-12T12:20:59.741Z,25.53
2018-07-12T12:21:59.702Z,25.73
2018-07-12T12:22:59.699Z,25.84
2018-07-12T12:23:59.628Z,25.78
2018-07-12T12:24:59.586Z,25.80
2018-07-12T12:25:59.548Z,25.93
2018-07-12T12:26:59.509Z,26.26
2018-07-12T12:27:59.507Z,26.51
2018-07-12T12:28:59.432Z,26.77
2018-07-12T12:29:59.399Z,27.05
2018-07-12T12:30:59.356Z,27.33
2018-07-12T12:31:59.349Z,27.27
2018-07-12T12:32:59.311Z,27.11
2018-07-12T12:33:59.239Z,26.75
2018-07-12T12:34:59.201Z,26.37
2018-07-12T12:35:59.169Z,26.15
2018-07-12T12:36:59.126Z,26.19
2018-07-12T12:37:59.118Z,26.25
2018-07-12T12:38:59.128Z,26.31
2018-07-12T12:39:59.059Z,26.43
2018-07-12T12:40:59.023Z,26.66
2018-07-12T12:41:59.729Z,26.88
2018-07-12T12:42:59.012Z,26.99
2018-07-12T12:43:58.972Z,27.22
2018-07-12T12:44:58.869Z,27.29
2018-07-12T12:45:58.830Z,27.40
2018-07-12T12:46:58.822Z,27.29
2018-07-12T12:47:58.768Z,27.26
2018-07-12T12:48:59.251Z,27.21
2018-07-12T12:49:58.683Z,27.21
2018-07-12T12:50:58.732Z,27.21
2018-07-12T12:51:58.604Z,27.12